This is the latest recevied weather packets stored in our database for station/object ON5MM-5. If no packets are shown the sender has not sent any weather packets the latest 10 day(s).
| Time | Temp. | Humidity | Pressure | Rain* | Wind** | Luminosity | Snow |
|---|---|---|---|---|---|---|---|
| 1777288802 | 17.22° C | 38% | 1024 hPa | 0 mm | 1.34 m/s, ° | - | - |
| 1777288502 | 17.22° C | 37% | 1024 hPa | 0 mm | 0.89 m/s, ° | - | - |
| 1777288202 | 16.67° C | 38% | 1024.1 hPa | 0 mm | 1.34 m/s, ° | - | - |
| 1777287903 | 16.67° C | 37% | 1024.1 hPa | 0 mm | 1.34 m/s, ° | - | - |
| 1777287602 | 17.22° C | 38% | 1024.1 hPa | 0 mm | 1.79 m/s, ° | - | - |
| 1777287302 | 17.22° C | 39% | 1024.2 hPa | 0 mm | 1.34 m/s, ° | - | - |
| 1777287003 | 16.67° C | 37% | 1024.1 hPa | 0 mm | 1.79 m/s, ° | - | - |
| 1777286703 | 17.22° C | 38% | 1024.2 hPa | 0 mm | 1.34 m/s, ° | - | - |
| 1777286402 | 17.22° C | 37% | 1024.2 hPa | 0 mm | 1.34 m/s, ° | - | - |
| 1777286102 | 16.67° C | 41% | 1024.3 hPa | 0 mm | 0.89 m/s, ° | - | - |
| 1777285803 | 16.11° C | 40% | 1024.3 hPa | 0 mm | 0.89 m/s, ° | - | - |
| 1777285503 | 16.11° C | 40% | 1024.3 hPa | 0 mm | 1.34 m/s, ° | - | - |
| 1777285203 | 16.11° C | 38% | 1024.3 hPa | 0 mm | 1.79 m/s, ° | - | - |
| 1777284902 | 16.11° C | 38% | 1024.2 hPa | 0 mm | 1.79 m/s, ° | - | - |
| 1777284602 | 16.67° C | 41% | 1024.4 hPa | 0 mm | 0.89 m/s, ° | - | - |
| 1777284303 | 16.11° C | 39% | 1024.4 hPa | 0 mm | 1.34 m/s, ° | - | - |
| 1777284002 | 15.56° C | 39% | 1024.4 hPa | 0 mm | 1.79 m/s, ° | - | - |
| 1777283703 | 16.11° C | 40% | 1024.4 hPa | 0 mm | 1.34 m/s, ° | - | - |
| 1777283402 | 16.11° C | 41% | 1024.4 hPa | 0 mm | 0.89 m/s, ° | - | - |
| 1777283102 | 15.56° C | 40% | 1024.4 hPa | 0 mm | 1.79 m/s, ° | - | - |
| 1777282802 | 16.11° C | 41% | 1024.4 hPa | 0 mm | 0.45 m/s, ° | - | - |
| 1777282503 | 15.56° C | 42% | 1024.4 hPa | 0 mm | 0.45 m/s, ° | - | - |
| 1777282202 | 15.56° C | 42% | 1024.4 hPa | 0 mm | 0.89 m/s, ° | - | - |
| 1777281902 | 15.56° C | 41% | 1024.5 hPa | 0 mm | 1.79 m/s, ° | - | - |
| 1777281603 | 15.56° C | 42% | 1024.5 hPa | 0 mm | 0.89 m/s, ° | - | - |
* Rain latest hour (hover to see other rain measurements)
** Current wind speed in m/s (hover to see current wind gust speed)